Time;durP1;ratioP1;P1;durP2;ratioP2;P2;SDS_P1;SDS_P2;PMS_P1;PMS_P2;Temp;Humidity;BMP_temperature;BMP_pressure;BME280_temperature;BME280_humidity;BME280_pressure;Samples;Min_cycle;Max_cycle;Signal;HPM_P1;HPM_P2
2023/02/21 02:15:51;;;;;;;1.17;0.75;;;19.00;54.50;;;;;;6268521;28;20112;-69
2023/02/21 02:19:18;;;;;;;1.33;0.70;;;19.00;54.50;;;;;;6261662;28;20402;-69
2023/02/21 02:22:52;;;;;;;0.55;0.50;;;19.00;54.50;;;;;;6268571;28;20378;-69
2023/02/21 02:26:09;;;;;;;0.70;0.50;;;19.00;54.50;;;;;;6268267;28;20025;-69
2023/02/21 02:29:24;;;;;;;1.25;0.50;;;19.00;54.50;;;;;;6268377;28;20477;-69
2023/02/21 02:32:36;;;;;;;0.45;0.35;;;19.00;54.50;;;;;;6268112;28;20017;-69
2023/02/21 02:35:47;;;;;;;0.50;0.40;;;19.00;54.60;;;;;;6268439;28;20021;-69
2023/02/21 02:39:04;;;;;;;0.73;0.50;;;19.00;54.50;;;;;;6267839;28;20151;-69
2023/02/21 02:42:34;;;;;;;1.40;0.60;;;19.00;54.60;;;;;;6266855;28;20482;-69
2023/02/21 02:45:46;;;;;;;0.60;0.50;;;19.00;54.60;;;;;;6258249;28;20048;-69
2023/02/21 02:48:59;;;;;;;0.40;0.30;;;19.00;54.60;;;;;;6268078;28;20064;-69
2023/02/21 02:52:08;;;;;;;0.65;0.40;;;19.00;54.60;;;;;;6267766;28;20037;-69
2023/02/21 02:55:23;;;;;;;0.95;0.60;;;19.00;54.60;;;;;;6267476;28;20055;-69
2023/02/21 02:58:52;;;;;;;0.60;0.45;;;19.00;54.60;;;;;;6267734;28;20032;-69
2023/02/21 03:02:11;;;;;;;0.47;0.35;;;19.00;54.60;;;;;;6263721;28;20044;-69
2023/02/21 03:05:42;;;;;;;0.43;0.40;;;19.00;54.60;;;;;;6267746;28;20052;-69
2023/02/21 03:09:19;;;;;;;0.43;0.40;;;19.00;55.30;;;;;;6267331;28;20029;-69
2023/02/21 03:12:32;;;;;;;0.45;0.45;;;19.00;54.60;;;;;;6257446;28;20111;-69
2023/02/21 03:15:41;;;;;;;0.43;0.40;;;19.00;54.60;;;;;;6266986;28;20017;-69
2023/02/21 03:18:47;;;;;;;0.60;0.60;;;19.00;54.60;;;;;;6267023;28;20032;-70
2023/02/21 03:22:15;;;;;;;0.30;0.30;;;19.00;54.60;;;;;;6267821;28;20390;-69
2023/02/21 03:25:17;;;;;;;0.40;0.40;;;19.00;54.60;;;;;;6266653;28;20048;-69
2023/02/21 03:28:19;;;;;;;0.68;0.57;;;19.00;54.60;;;;;;6267475;28;20013;-69
2023/02/21 03:31:27;;;;;;;0.38;0.30;;;19.00;54.60;;;;;;6267260;28;20486;-69
2023/02/21 03:34:27;;;;;;;0.70;0.40;;;19.00;54.60;;;;;;6267652;28;20025;-69
2023/02/21 03:37:38;;;;;;;0.50;0.40;;;19.00;54.60;;;;;;6267099;28;20688;-69
2023/02/21 03:40:38;;;;;;;0.73;0.60;;;19.00;54.60;;;;;;6266952;28;20029;-69
2023/02/21 03:43:39;;;;;;;0.57;0.55;;;19.00;54.60;;;;;;6266930;28;20715;-69
2023/02/21 03:46:40;;;;;;;0.70;0.47;;;19.00;54.60;;;;;;6266138;28;20021;-69
2023/02/21 03:49:40;;;;;;;0.38;0.30;;;19.00;54.60;;;;;;6266989;28;20029;-69
2023/02/21 03:52:41;;;;;;;0.88;0.43;;;19.00;55.30;;;;;;6267258;28;20385;-69
2023/02/21 03:55:42;;;;;;;0.50;0.30;;;19.00;54.60;;;;;;6265729;28;20501;-69
2023/02/21 03:58:43;;;;;;;0.50;0.40;;;19.00;54.60;;;;;;6266618;28;20032;-69
2023/02/21 04:01:43;;;;;;;0.35;0.35;;;19.00;54.60;;;;;;6266243;28;20730;-69
2023/02/21 04:04:47;;;;;;;0.40;0.40;;;18.90;54.50;;;;;;6270107;28;20047;-69
2023/02/21 04:07:47;;;;;;;0.43;0.40;;;18.90;54.50;;;;;;6271734;28;20028;-69
2023/02/21 04:10:48;;;;;;;0.38;0.38;;;19.00;54.60;;;;;;6270063;28;20029;-69
2023/02/21 04:13:49;;;;;;;0.35;0.35;;;19.00;54.60;;;;;;6250670;28;20029;-69
2023/02/21 04:16:50;;;;;;;0.50;0.40;;;19.00;54.60;;;;;;6271392;28;20029;-68
2023/02/21 04:19:51;;;;;;;0.50;0.32;;;19.00;54.60;;;;;;6269658;28;20449;-69
2023/02/21 04:22:51;;;;;;;0.30;0.30;;;19.00;54.70;;;;;;6271187;28;20155;-69
2023/02/21 04:25:52;;;;;;;0.30;0.30;;;19.00;54.60;;;;;;6271375;28;20386;-69
2023/02/21 04:28:53;;;;;;;0.40;0.40;;;19.00;54.60;;;;;;6270898;28;20390;-69
2023/02/21 04:31:54;;;;;;;0.47;0.40;;;19.00;54.60;;;;;;6269632;28;20439;-69
2023/02/21 04:34:55;;;;;;;0.50;0.40;;;19.00;54.70;;;;;;6269710;28;20021;-69
2023/02/21 04:37:55;;;;;;;0.30;0.30;;;19.00;54.60;;;;;;6271012;28;20118;-69
2023/02/21 04:40:56;;;;;;;0.40;0.40;;;19.00;54.60;;;;;;6270694;28;20025;-69
2023/02/21 04:43:57;;;;;;;0.73;0.40;;;19.00;54.70;;;;;;6270546;28;20363;-69
2023/02/21 04:46:57;;;;;;;0.50;0.50;;;19.00;54.70;;;;;;6270578;28;20367;-69
2023/02/21 04:49:58;;;;;;;0.30;0.30;;;19.00;54.60;;;;;;6269119;28;20112;-69
2023/02/21 04:52:59;;;;;;;0.40;0.25;;;19.00;54.70;;;;;;6270344;28;20025;-69
2023/02/21 04:55:59;;;;;;;0.20;0.20;;;19.00;54.70;;;;;;6270538;28;20029;-66
2023/02/21 04:59:00;;;;;;;0.40;0.40;;;19.00;54.70;;;;;;6270236;28;20407;-69
2023/02/21 05:02:01;;;;;;;0.63;0.40;;;19.00;54.70;;;;;;6270254;28;20032;-69
2023/02/21 05:05:02;;;;;;;0.40;0.40;;;19.00;54.70;;;;;;6269920;28;20445;-69
2023/02/21 05:08:02;;;;;;;0.35;0.35;;;18.90;54.60;;;;;;6268806;28;20398;-69
2023/02/21 05:11:03;;;;;;;0.32;0.30;;;19.00;54.70;;;;;;6268430;28;20036;-69
2023/02/21 05:14:04;;;;;;;0.52;0.40;;;19.00;54.70;;;;;;6246534;28;20087;-69
2023/02/21 05:17:05;;;;;;;0.35;0.30;;;19.00;54.70;;;;;;6265602;28;20025;-69
2023/02/21 05:20:10;;;;;;;0.40;0.30;;;19.00;54.70;;;;;;6268210;28;20094;-69
2023/02/21 05:23:11;;;;;;;0.57;0.50;;;19.00;54.70;;;;;;6268768;28;20044;-69
2023/02/21 05:26:12;;;;;;;0.32;0.30;;;19.00;54.70;;;;;;6268596;28;20094;-69
2023/02/21 05:29:14;;;;;;;0.55;0.30;;;19.00;54.60;;;;;;6269928;28;20017;-69
2023/02/21 05:32:16;;;;;;;0.50;0.40;;;19.00;54.60;;;;;;6269636;28;20021;-69
2023/02/21 05:35:17;;;;;;;0.85;0.40;;;19.00;54.70;;;;;;6269457;28;20082;-69
2023/02/21 05:38:20;;;;;;;0.30;0.30;;;19.00;55.30;;;;;;6269417;28;20114;-69
2023/02/21 05:41:22;;;;;;;0.30;0.30;;;19.00;54.70;;;;;;6268308;28;20025;-69
2023/02/21 05:44:22;;;;;;;0.73;0.40;;;19.00;54.60;;;;;;6268028;28;20021;-69
2023/02/21 05:47:23;;;;;;;0.20;0.20;;;19.00;54.70;;;;;;6270082;28;20508;-69
2023/02/21 05:50:24;;;;;;;0.63;0.40;;;19.00;54.70;;;;;;6267743;28;20571;-69
2023/02/21 05:53:24;;;;;;;0.50;0.50;;;19.00;54.70;;;;;;6269420;28;20029;-69
2023/02/21 05:56:25;;;;;;;0.30;0.30;;;19.00;54.70;;;;;;6268837;28;20069;-67
2023/02/21 05:59:26;;;;;;;0.30;0.30;;;19.00;54.70;;;;;;6268878;28;20044;-67
2023/02/21 06:02:27;;;;;;;0.55;0.40;;;19.00;54.70;;;;;;6267772;28;20025;-67
2023/02/21 06:05:28;;;;;;;0.40;0.30;;;19.00;54.70;;;;;;6269070;28;20077;-67
2023/02/21 06:08:28;;;;;;;0.40;0.30;;;19.00;54.70;;;;;;6267396;28;20063;-67
2023/02/21 06:11:35;;;;;;;0.25;0.20;;;19.00;54.70;;;;;;6264927;28;20426;-67
2023/02/21 06:14:36;;;;;;;0.63;0.38;;;19.00;54.70;;;;;;6251062;28;20047;-64
2023/02/21 06:17:39;;;;;;;0.43;0.30;;;19.00;54.70;;;;;;6288127;28;20493;-65
2023/02/21 06:20:40;;;;;;;0.80;0.50;;;19.00;54.70;;;;;;6274532;28;20045;-66
2023/02/21 06:23:40;;;;;;;0.40;0.40;;;19.00;54.60;;;;;;6293651;28;20024;-65
2023/02/21 06:26:41;;;;;;;1.27;0.70;;;19.00;54.50;;;;;;6274099;28;20654;-65
2023/02/21 06:29:42;;;;;;;1.30;0.80;;;19.00;54.30;;;;;;6268978;28;20456;-66
2023/02/21 06:32:42;;;;;;;1.30;1.02;;;19.00;54.30;;;;;;6266237;28;20025;-69
2023/02/21 06:35:43;;;;;;;1.70;1.30;;;19.00;54.10;;;;;;6266979;28;20410;-69
2023/02/21 06:38:50;;;;;;;2.50;1.77;;;19.00;53.90;;;;;;6263845;28;20452;-69
2023/02/21 06:41:52;;;;;;;1.65;1.30;;;19.00;53.60;;;;;;6267131;28;20025;-69
2023/02/21 06:44:52;;;;;;;1.38;0.93;;;19.00;54.00;;;;;;6270541;28;20145;-69
2023/02/21 06:47:53;;;;;;;1.05;0.80;;;19.00;54.10;;;;;;6275595;28;20020;-69
2023/02/21 06:50:54;;;;;;;1.60;0.68;;;19.00;54.30;;;;;;6257544;28;20629;-70
2023/02/21 06:53:56;;;;;;;1.00;0.80;;;19.00;54.30;;;;;;6266403;28;20067;-70
2023/02/21 06:56:57;;;;;;;0.73;0.60;;;19.00;54.30;;;;;;6259238;28;20089;-69
2023/02/21 06:59:58;;;;;;;2.65;0.60;;;19.00;54.30;;;;;;6261832;28;20127;-69
2023/02/21 07:02:59;;;;;;;1.02;0.60;;;19.00;54.30;;;;;;6270743;28;20462;-69
2023/02/21 07:05:59;;;;;;;0.77;0.50;;;19.00;54.40;;;;;;6246369;28;20017;-69
2023/02/21 07:09:00;;;;;;;0.70;0.70;;;19.00;54.40;;;;;;6264350;28;20113;-69
2023/02/21 07:12:02;;;;;;;0.60;0.60;;;19.00;54.40;;;;;;6245911;28;20072;-69
2023/02/21 07:15:03;;;;;;;1.50;0.55;;;19.00;54.40;;;;;;6245045;28;20025;-69
2023/02/21 07:18:04;;;;;;;0.80;0.70;;;19.00;54.40;;;;;;6260542;28;20060;-69
2023/02/21 07:21:05;;;;;;;0.77;0.57;;;19.00;54.50;;;;;;6279129;28;20076;-69
2023/02/21 07:24:06;;;;;;;0.85;0.45;;;19.00;54.50;;;;;;6263172;28;20934;-69
2023/02/21 07:27:06;;;;;;;0.63;0.50;;;19.00;54.50;;;;;;6283563;28;20025;-69
2023/02/21 07:30:09;;;;;;;0.40;0.32;;;19.00;54.50;;;;;;6267640;28;20035;-68
2023/02/21 07:33:09;;;;;;;0.52;0.50;;;19.00;54.50;;;;;;6283868;28;20035;-69
2023/02/21 07:36:10;;;;;;;1.15;0.60;;;19.00;54.50;;;;;;6294209;28;20024;-69
2023/02/21 07:39:11;;;;;;;0.50;0.50;;;19.00;54.60;;;;;;6259474;28;21794;-69
2023/02/21 07:42:12;;;;;;;0.60;0.50;;;19.00;54.50;;;;;;6273811;28;20029;-70
2023/02/21 07:45:14;;;;;;;0.38;0.32;;;19.00;54.60;;;;;;6272452;28;20091;-69
2023/02/21 07:48:15;;;;;;;0.65;0.50;;;19.00;54.60;;;;;;6273685;28;20079;-69
2023/02/21 07:51:15;;;;;;;0.50;0.50;;;19.00;54.60;;;;;;6273789;28;20111;-69
2023/02/21 07:54:17;;;;;;;0.75;0.68;;;19.00;54.60;;;;;;6265249;28;20032;-69
2023/02/21 07:57:18;;;;;;;0.85;0.55;;;19.00;54.60;;;;;;6278562;28;20035;-69
2023/02/21 08:00:19;;;;;;;0.70;0.50;;;19.00;54.60;;;;;;6298397;28;20060;-69
2023/02/21 08:03:19;;;;;;;0.55;0.43;;;19.00;54.60;;;;;;6298415;28;20021;-69
2023/02/21 08:06:20;;;;;;;0.70;0.40;;;19.00;54.60;;;;;;6281247;28;20032;-69
2023/02/21 08:09:21;;;;;;;0.47;0.40;;;19.10;54.70;;;;;;6261492;28;20045;-69
2023/02/21 08:12:22;;;;;;;0.50;0.40;;;19.00;54.70;;;;;;6252510;28;20043;-69
2023/02/21 08:15:22;;;;;;;0.40;0.40;;;19.10;54.70;;;;;;6273736;28;20478;-69
2023/02/21 08:18:24;;;;;;;0.77;0.52;;;19.00;54.60;;;;;;6272446;28;20540;-68
2023/02/21 08:21:24;;;;;;;0.73;0.60;;;19.10;54.70;;;;;;6272654;28;20052;-69
2023/02/21 08:24:26;;;;;;;0.30;0.30;;;19.00;54.70;;;;;;6272695;28;20033;-69
2023/02/21 08:27:27;;;;;;;0.50;0.40;;;19.00;54.70;;;;;;6288964;28;20131;-69
2023/02/21 08:30:27;;;;;;;0.43;0.40;;;19.00;54.70;;;;;;6271520;28;20028;-69
2023/02/21 08:33:29;;;;;;;0.60;0.50;;;19.00;54.70;;;;;;6272306;28;20032;-69
2023/02/21 08:36:32;;;;;;;0.55;0.45;;;19.10;54.70;;;;;;6272798;28;20025;-69
2023/02/21 08:39:33;;;;;;;0.40;0.40;;;19.10;54.90;;;;;;6272264;28;20029;-68
2023/02/21 08:42:34;;;;;;;1.48;0.50;;;19.10;54.60;;;;;;6271312;28;20113;-68
2023/02/21 08:45:35;;;;;;;0.70;0.50;;;19.10;54.60;;;;;;6271926;28;20033;-69
2023/02/21 08:48:35;;;;;;;0.30;0.30;;;19.10;54.70;;;;;;6271520;28;20088;-69
2023/02/21 08:51:36;;;;;;;0.52;0.40;;;19.10;54.60;;;;;;6272172;28;20708;-69
2023/02/21 08:54:37;;;;;;;0.30;0.30;;;19.10;54.70;;;;;;6272027;28;20102;-68
2023/02/21 08:57:38;;;;;;;0.43;0.43;;;19.10;54.70;;;;;;6271964;28;20040;-69
2023/02/21 09:00:38;;;;;;;0.43;0.43;;;19.10;54.70;;;;;;6271358;28;20061;-69
2023/02/21 09:03:41;;;;;;;0.40;0.40;;;19.10;54.80;;;;;;6270541;28;20108;-68
2023/02/21 09:06:42;;;;;;;1.05;0.40;;;19.00;54.70;;;;;;6272063;28;20025;-68
2023/02/21 09:09:44;;;;;;;0.43;0.40;;;19.00;54.70;;;;;;6269843;28;20044;-68
2023/02/21 09:12:45;;;;;;;0.55;0.50;;;19.10;54.80;;;;;;6270445;28;20025;-68
2023/02/21 09:15:46;;;;;;;0.60;0.50;;;19.00;54.70;;;;;;6270030;28;20397;-68
2023/02/21 09:18:54;;;;;;;3.55;0.68;;;19.10;54.80;;;;;;6270668;28;20053;-69
2023/02/21 09:21:55;;;;;;;1.00;0.43;;;19.10;54.80;;;;;;6271413;28;20028;-69
2023/02/21 09:24:57;;;;;;;0.30;0.30;;;19.10;54.80;;;;;;6278067;28;20036;-68
2023/02/21 09:27:59;;;;;;;0.30;0.30;;;19.10;54.80;;;;;;6294519;28;20059;-69
2023/02/21 09:30:59;;;;;;;0.40;0.40;;;19.10;54.80;;;;;;6271121;28;20371;-69
2023/02/21 09:34:01;;;;;;;0.30;0.30;;;19.00;54.80;;;;;;6288146;28;20021;-68
2023/02/21 09:37:05;;;;;;;0.55;0.47;;;19.10;54.90;;;;;;6269788;28;20037;-68
2023/02/21 09:40:29;;;;;;;0.30;0.30;;;19.00;54.80;;;;;;6271102;28;20040;-70
2023/02/21 09:43:38;;;;;;;0.50;0.38;;;19.00;54.80;;;;;;6271296;28;20452;-69
2023/02/21 09:46:43;;;;;;;3.05;0.40;;;19.00;54.80;;;;;;6268250;28;20109;-69
2023/02/21 09:49:44;;;;;;;0.47;0.40;;;19.10;54.90;;;;;;6270631;28;20021;-71
2023/02/21 09:52:46;;;;;;;0.57;0.40;;;19.10;54.90;;;;;;6271389;28;20103;-70
2023/02/21 09:55:50;;;;;;;1.63;0.50;;;19.10;54.90;;;;;;6271550;28;20454;-70
2023/02/21 09:58:51;;;;;;;0.57;0.40;;;19.00;54.80;;;;;;6270272;28;20029;-70
2023/02/21 10:01:59;;;;;;;0.40;0.40;;;19.10;54.80;;;;;;6268487;28;20341;-70
2023/02/21 10:05:37;;;;;;;0.45;0.45;;;19.10;54.90;;;;;;6268922;28;20056;-68
2023/02/21 10:09:04;;;;;;;0.38;0.38;;;19.00;54.80;;;;;;6270240;28;20532;-71
2023/02/21 10:12:08;;;;;;;0.57;0.40;;;19.10;54.90;;;;;;6262894;28;20022;-66
2023/02/21 10:15:11;;;;;;;0.40;0.40;;;19.10;54.90;;;;;;6246505;28;20028;-67
2023/02/21 10:18:35;;;;;;;0.40;0.30;;;19.00;54.80;;;;;;6246944;28;20040;-66
2023/02/21 10:21:41;;;;;;;0.30;0.30;;;19.00;54.80;;;;;;6247134;28;20033;-67
2023/02/21 10:24:41;;;;;;;0.35;0.35;;;19.10;54.90;;;;;;6246173;28;20109;-67
2023/02/21 10:27:42;;;;;;;0.50;0.40;;;19.10;54.90;;;;;;6247212;28;20475;-67
2023/02/21 10:30:45;;;;;;;0.43;0.43;;;19.00;54.80;;;;;;6247276;28;20108;-67
2023/02/21 10:33:45;;;;;;;0.82;0.43;;;19.10;54.90;;;;;;6246890;28;20036;-66
2023/02/21 10:36:48;;;;;;;0.70;0.30;;;19.10;54.90;;;;;;6247207;28;20029;-67
2023/02/21 10:39:53;;;;;;;0.85;0.40;;;19.10;54.90;;;;;;6246608;28;20483;-68
2023/02/21 10:43:09;;;;;;;0.65;0.50;;;19.00;54.80;;;;;;6246952;28;20028;-68
2023/02/21 10:46:14;;;;;;;0.57;0.38;;;19.10;54.90;;;;;;6260161;28;20035;-67
2023/02/21 10:49:42;;;;;;;1.05;0.52;;;19.10;54.90;;;;;;6271095;28;20027;-67
2023/02/21 10:52:48;;;;;;;0.77;0.30;;;19.10;54.90;;;;;;6290621;28;20020;-67
2023/02/21 10:56:13;;;;;;;1.27;0.40;;;19.00;54.80;;;;;;6267157;28;20502;-67
2023/02/21 10:59:24;;;;;;;1.13;0.43;;;19.10;54.90;;;;;;6270605;28;20021;-67
2023/02/21 11:02:28;;;;;;;0.77;0.50;;;19.00;55.20;;;;;;6270506;28;20462;-67
2023/02/21 11:05:29;;;;;;;1.77;0.50;;;19.00;54.80;;;;;;6270476;28;20021;-68
2023/02/21 11:08:43;;;;;;;0.70;0.50;;;19.00;54.80;;;;;;6269383;28;20021;-67
2023/02/21 11:11:45;;;;;;;1.80;0.75;;;19.10;54.90;;;;;;6254782;28;20102;-67
2023/02/21 11:14:57;;;;;;;1.27;0.43;;;19.10;54.90;;;;;;6268862;28;20032;-67
2023/02/21 11:18:22;;;;;;;0.93;0.60;;;19.10;54.90;;;;;;6287556;28;20077;-67
2023/02/21 11:21:23;;;;;;;1.20;0.52;;;19.00;54.80;;;;;;6270556;28;20072;-67
2023/02/21 11:24:25;;;;;;;1.85;0.75;;;19.00;54.80;;;;;;6279217;28;20041;-67
2023/02/21 11:27:28;;;;;;;1.60;0.60;;;19.00;54.80;;;;;;6270657;28;20489;-67
2023/02/21 11:30:35;;;;;;;0.98;0.52;;;19.10;54.90;;;;;;6270217;28;20056;-67
2023/02/21 11:33:41;;;;;;;0.90;0.50;;;19.10;54.90;;;;;;6271003;28;20025;-67
2023/02/21 11:36:44;;;;;;;1.17;0.52;;;19.10;54.90;;;;;;6270472;28;20117;-67
2023/02/21 11:39:50;;;;;;;1.08;0.50;;;19.00;54.80;;;;;;6270479;28;20048;-67
2023/02/21 11:43:27;;;;;;;0.70;0.50;;;19.10;55.00;;;;;;6270874;28;20029;-67
2023/02/21 11:46:47;;;;;;;0.40;0.40;;;19.00;54.90;;;;;;6269452;28;20021;-67
2023/02/21 11:50:01;;;;;;;1.70;0.60;;;19.10;55.00;;;;;;6270465;28;20514;-67
2023/02/21 11:53:27;;;;;;;0.70;0.47;;;19.10;54.90;;;;;;6270470;28;20083;-67
2023/02/21 11:56:47;;;;;;;0.60;0.40;;;19.00;54.90;;;;;;6270524;28;20025;-67
2023/02/21 12:00:28;;;;;;;1.10;0.40;;;19.10;55.00;;;;;;6270622;28;20389;-66
2023/02/21 12:03:50;;;;;;;0.55;0.30;;;19.00;54.90;;;;;;6270624;28;20032;-67
2023/02/21 12:07:07;;;;;;;2.38;0.75;;;19.10;55.00;;;;;;6270347;28;20334;-66
2023/02/21 12:10:22;;;;;;;1.63;0.50;;;19.10;55.00;;;;;;6251460;28;20071;-67
2023/02/21 12:13:42;;;;;;;;;;;19.10;55.00;;;;;;6263630;28;20029;-67
2023/02/21 12:17:01;;;;;;;1.20;0.70;;;19.10;55.00;;;;;;6270135;28;20060;-65
2023/02/21 12:20:20;;;;;;;1.70;0.60;;;19.00;54.90;;;;;;6245269;28;20055;-63
2023/02/21 12:23:42;;;;;;;1.73;0.40;;;19.10;55.00;;;;;;6271920;28;20393;-65
2023/02/21 12:26:53;;;;;;;0.65;0.50;;;19.10;55.00;;;;;;6298524;28;20025;-66
2023/02/21 12:30:18;;;;;;;0.77;0.50;;;19.10;54.80;;;;;;6273865;28;20108;-66
2023/02/21 12:33:40;;;;;;;5.18;0.80;;;19.10;54.80;;;;;;6274268;28;20021;-65
2023/02/21 12:36:52;;;;;;;1.98;0.77;;;19.10;55.00;;;;;;6274547;28;20025;-66
2023/02/21 12:39:59;;;;;;;1.55;0.80;;;19.10;55.00;;;;;;6274259;28;20098;-66
2023/02/21 12:43:31;;;;;;;1.00;0.43;;;19.10;55.00;;;;;;6274600;28;20033;-67
2023/02/21 12:46:39;;;;;;;0.90;0.52;;;19.10;55.00;;;;;;6274555;28;20017;-65
2023/02/21 12:50:04;;;;;;;0.52;0.50;;;19.10;55.00;;;;;;6273809;28;20013;-65
2023/02/21 12:53:08;;;;;;;1.13;0.70;;;19.10;55.00;;;;;;6272637;28;20025;-65
2023/02/21 12:56:33;;;;;;;1.10;0.53;;;19.10;55.00;;;;;;6274003;28;20021;-65
2023/02/21 12:59:52;;;;;;;0.98;0.50;;;19.10;55.00;;;;;;6273859;28;20466;-65
2023/02/21 13:02:58;;;;;;;1.67;0.60;;;19.10;55.00;;;;;;6272352;28;20398;-64
2023/02/21 13:06:29;;;;;;;0.50;0.40;;;19.10;55.00;;;;;;6270964;28;20025;-65
2023/02/21 13:09:38;;;;;;;1.50;0.60;;;19.10;55.10;;;;;;6272929;28;20028;-66
2023/02/21 13:12:44;;;;;;;0.60;0.55;;;19.10;55.00;;;;;;6270990;28;20021;-66
2023/02/21 13:15:47;;;;;;;1.17;0.70;;;19.10;55.00;;;;;;6271863;28;20025;-65
2023/02/21 13:18:58;;;;;;;0.82;0.60;;;19.10;55.00;;;;;;6272646;28;20060;-65
2023/02/21 13:26:10;;;;;;;1.30;0.60;;;19.10;55.00;;;;;;6272904;28;20021;-65
2023/02/21 13:29:21;;;;;;;1.15;0.70;;;19.10;55.00;;;;;;6272228;28;20104;-65
2023/02/21 13:32:22;;;;;;;1.77;0.82;;;19.10;55.00;;;;;;6273046;28;20033;-65
2023/02/21 13:35:34;;;;;;;1.15;0.50;;;19.10;55.00;;;;;;6271164;28;20055;-66
2023/02/21 13:38:35;;;;;;;0.73;0.40;;;19.10;55.00;;;;;;6272033;28;20033;-65
2023/02/21 13:41:39;;;;;;;1.33;0.50;;;19.00;54.90;;;;;;6272445;28;20078;-65
2023/02/21 13:44:50;;;;;;;1.90;0.80;;;19.10;55.00;;;;;;6272158;28;20024;-65
2023/02/21 13:48:00;;;;;;;1.48;0.65;;;19.10;55.00;;;;;;6271547;28;20029;-65
2023/02/21 13:51:01;;;;;;;1.40;0.60;;;19.10;55.00;;;;;;6271885;28;20025;-65
2023/02/21 13:54:11;;;;;;;2.33;0.80;;;19.10;55.00;;;;;;6272013;28;20378;-65
2023/02/21 13:57:30;;;;;;;4.57;1.20;;;19.10;55.00;;;;;;6270844;28;20072;-65
2023/02/21 14:00:30;;;;;;;1.13;0.60;;;19.10;54.90;;;;;;6270357;28;20119;-65
2023/02/21 14:03:32;;;;;;;1.38;0.75;;;19.10;54.90;;;;;;6271794;28;20384;-65
2023/02/21 14:06:36;;;;;;;2.25;0.80;;;19.10;54.90;;;;;;6271599;28;20027;-65
2023/02/21 14:09:40;;;;;;;2.25;0.55;;;19.10;54.90;;;;;;6270219;28;20025;-65
2023/02/21 14:12:44;;;;;;;1.42;0.50;;;19.10;54.90;;;;;;6271495;28;20025;-65
2023/02/21 14:15:48;;;;;;;0.98;0.60;;;19.10;55.00;;;;;;6271253;28;20029;-65
2023/02/21 14:18:55;;;;;;;1.15;0.60;;;19.10;55.00;;;;;;6270916;28;20367;-65
2023/02/21 14:22:07;;;;;;;5.05;0.95;;;19.10;55.00;;;;;;6271284;28;20021;-65
2023/02/21 14:25:22;;;;;;;2.28;0.90;;;19.10;54.90;;;;;;6271344;28;20581;-63
2023/02/21 14:28:57;;;;;;;2.00;0.60;;;19.10;55.00;;;;;;6271031;28;20100;-65
2023/02/21 14:32:03;;;;;;;1.85;0.70;;;19.10;55.00;;;;;;6271306;28;20028;-65
2023/02/21 14:35:41;;;;;;;1.20;0.65;;;19.10;55.00;;;;;;6269913;28;20075;-65
2023/02/21 14:38:43;;;;;;;1.70;0.75;;;19.10;55.00;;;;;;6270180;28;20124;-66
2023/02/21 14:41:58;;;;;;;1.58;0.80;;;19.10;55.00;;;;;;6271144;28;20028;-64
2023/02/21 14:45:11;;;;;;;1.45;0.60;;;19.10;55.00;;;;;;6270688;28;20082;-65
2023/02/21 14:48:12;;;;;;;1.67;0.65;;;19.10;55.00;;;;;;6269834;28;20021;-66
2023/02/21 14:51:50;;;;;;;2.47;0.93;;;19.10;55.00;;;;;;6270674;28;20087;-65
2023/02/21 14:55:29;;;;;;;2.05;0.90;;;19.10;55.00;;;;;;6269601;28;20078;-65
2023/02/21 14:59:01;;;;;;;1.20;0.60;;;19.10;55.00;;;;;;6269183;28;20033;-68
2023/02/21 15:02:26;;;;;;;2.03;0.80;;;19.10;55.00;;;;;;6269555;28;20071;-64
2023/02/21 15:05:46;;;;;;;2.20;0.60;;;19.10;54.90;;;;;;6270451;28;20538;-64
2023/02/21 15:08:50;;;;;;;2.10;0.80;;;19.10;55.00;;;;;;6269913;28;20035;-63
2023/02/21 15:11:51;;;;;;;2.33;0.80;;;19.10;55.00;;;;;;6270506;28;20501;-63
2023/02/21 15:14:52;;;;;;;2.72;0.73;;;19.10;54.90;;;;;;6270149;28;20078;-64
2023/02/21 15:17:58;;;;;;;2.85;0.85;;;19.10;55.60;;;;;;6270043;28;20358;-64
2023/02/21 15:21:11;;;;;;;1.85;0.88;;;19.10;54.90;;;;;;6268746;28;20044;-64
2023/02/21 15:24:14;;;;;;;2.75;1.10;;;19.00;54.80;;;;;;6270131;28;20024;-63
2023/02/21 15:27:15;;;;;;;1.80;0.90;;;19.10;54.90;;;;;;6270167;28;20020;-65
2023/02/21 15:30:23;;;;;;;2.10;0.80;;;19.00;54.80;;;;;;6269422;28;20033;-64
2023/02/21 15:33:26;;;;;;;1.80;0.93;;;19.10;54.90;;;;;;6268993;28;20029;-64
2023/02/21 15:36:28;;;;;;;2.83;0.98;;;19.10;54.90;;;;;;6269752;28;20033;-65
2023/02/21 15:39:38;;;;;;;1.60;0.88;;;19.10;54.90;;;;;;6269670;28;20104;-65
2023/02/21 15:42:41;;;;;;;3.22;0.85;;;19.10;54.90;;;;;;6269568;28;20075;-64
2023/02/21 15:45:47;;;;;;;3.67;1.10;;;19.10;54.90;;;;;;6268698;28;20029;-64
2023/02/21 15:48:49;;;;;;;2.05;0.90;;;19.10;54.90;;;;;;6268121;28;20024;-64
2023/02/21 15:51:50;;;;;;;2.35;1.00;;;19.10;54.90;;;;;;6269706;28;20021;-63
2023/02/21 15:55:15;;;;;;;2.35;1.05;;;19.00;54.80;;;;;;6269833;28;20028;-65
2023/02/21 15:58:25;;;;;;;3.87;1.03;;;19.10;54.90;;;;;;6270853;28;20021;-65
2023/02/21 16:01:26;;;;;;;4.28;1.30;;;19.10;54.80;;;;;;6274520;28;20652;-63
2023/02/21 16:04:35;;;;;;;2.90;1.02;;;19.10;54.90;;;;;;6274744;28;20073;-64
2023/02/21 16:07:39;;;;;;;1.83;0.80;;;19.10;54.80;;;;;;6274197;28;20029;-64
2023/02/21 16:10:40;;;;;;;2.45;1.05;;;19.10;54.90;;;;;;6274375;28;20044;-64
2023/02/21 16:13:41;;;;;;;2.50;0.90;;;19.10;55.00;;;;;;6274138;28;20023;-64
2023/02/21 16:16:42;;;;;;;4.30;1.00;;;19.10;54.80;;;;;;6274427;28;20055;-64
2023/02/21 16:19:51;;;;;;;3.20;1.27;;;19.10;54.90;;;;;;6273530;28;20406;-64
2023/02/21 16:23:11;;;;;;;2.13;0.98;;;19.10;55.60;;;;;;6274148;28;20419;-64
2023/02/21 16:26:12;;;;;;;3.03;1.27;;;19.10;54.90;;;;;;6274086;28;20060;-63
2023/02/21 16:29:13;;;;;;;3.25;1.10;;;19.10;54.90;;;;;;6272276;28;20086;-64
2023/02/21 16:32:19;;;;;;;2.55;0.93;;;19.10;54.90;;;;;;6274133;28;20096;-64
2023/02/21 16:35:22;;;;;;;2.60;1.10;;;19.10;54.90;;;;;;6273768;28;20020;-64
2023/02/21 16:38:25;;;;;;;3.08;1.10;;;19.10;54.90;;;;;;6273253;28;20024;-63
2023/02/21 16:41:26;;;;;;;3.15;1.00;;;19.10;54.90;;;;;;6271927;28;20060;-64
2023/02/21 16:44:26;;;;;;;2.63;1.10;;;19.10;54.90;;;;;;6273485;28;20029;-64
2023/02/21 16:47:27;;;;;;;2.63;1.00;;;19.10;54.90;;;;;;6271987;28;20028;-64
2023/02/21 16:50:34;;;;;;;2.85;0.88;;;19.10;54.90;;;;;;6273027;28;20033;-64
2023/02/21 16:53:35;;;;;;;2.10;1.05;;;19.10;54.90;;;;;;6272915;28;20060;-65
2023/02/21 16:56:39;;;;;;;3.88;0.77;;;19.10;54.90;;;;;;6273468;28;20021;-64
2023/02/21 16:59:42;;;;;;;1.83;0.83;;;19.10;54.90;;;;;;6272932;28;20021;-65
2023/02/21 17:02:42;;;;;;;3.28;1.08;;;19.10;54.90;;;;;;6272981;28;20056;-65
2023/02/21 17:05:43;;;;;;;1.90;1.20;;;19.10;54.90;;;;;;6273042;28;20025;-65
2023/02/21 17:08:44;;;;;;;3.70;1.45;;;19.10;54.90;;;;;;6270754;28;20381;-64
2023/02/21 17:11:45;;;;;;;3.53;1.40;;;19.10;54.90;;;;;;6273386;28;20052;-64
2023/02/21 17:14:45;;;;;;;3.30;1.30;;;19.10;54.90;;;;;;6271743;28;20500;-64
2023/02/21 17:17:46;;;;;;;2.50;1.20;;;19.10;54.90;;;;;;6271530;28;20440;-65
2023/02/21 17:20:47;;;;;;;5.63;1.38;;;19.10;54.90;;;;;;6272507;28;20045;-64
2023/02/21 17:23:47;;;;;;;3.78;1.20;;;19.10;54.90;;;;;;6272939;28;20426;-64
2023/02/21 17:26:52;;;;;;;1.35;1.00;;;19.10;54.90;;;;;;6272614;28;20418;-64
2023/02/21 17:29:52;;;;;;;3.33;1.42;;;19.10;54.90;;;;;;6271017;28;20021;-63
2023/02/21 17:32:53;;;;;;;5.43;1.63;;;19.10;54.90;;;;;;6270120;28;20083;-64
2023/02/21 17:35:54;;;;;;;4.32;1.88;;;19.10;54.90;;;;;;6269030;28;20438;-64
2023/02/21 17:38:56;;;;;;;2.30;1.25;;;19.10;54.90;;;;;;6269832;28;20082;-64
2023/02/21 17:41:57;;;;;;;2.55;1.38;;;19.00;54.80;;;;;;6270270;28;20059;-64
2023/02/21 17:45:00;;;;;;;3.92;1.60;;;19.10;54.90;;;;;;6268919;28;20017;-64
2023/02/21 17:48:04;;;;;;;3.30;1.40;;;19.10;54.90;;;;;;6269539;28;20020;-64
2023/02/21 17:51:05;;;;;;;3.65;1.45;;;19.10;54.90;;;;;;6269959;28;20123;-65
2023/02/21 17:54:06;;;;;;;4.30;1.52;;;19.00;54.80;;;;;;6268626;28;20025;-64
2023/02/21 17:57:07;;;;;;;2.95;1.05;;;19.10;54.90;;;;;;6269656;28;20021;-66
2023/02/21 18:00:15;;;;;;;5.43;1.95;;;19.10;55.00;;;;;;6268624;28;20021;-64
2023/02/21 18:03:15;;;;;;;4.03;1.85;;;19.10;54.90;;;;;;6267417;28;20032;-64
2023/02/21 18:06:16;;;;;;;3.60;1.83;;;19.00;54.80;;;;;;6268431;28;20418;-64
2023/02/21 18:09:17;;;;;;;4.85;1.65;;;19.10;54.90;;;;;;6269032;28;20025;-63
2023/02/21 18:12:18;;;;;;;3.75;1.85;;;19.00;54.80;;;;;;6266104;28;20658;-64
2023/02/21 18:15:22;;;;;;;5.20;2.00;;;19.00;54.80;;;;;;6269298;28;20490;-64
2023/02/21 18:18:22;;;;;;;3.85;1.75;;;19.10;54.90;;;;;;6268874;28;20087;-64
2023/02/21 18:21:23;;;;;;;6.70;2.83;;;19.10;55.00;;;;;;6268275;28;20049;-64
2023/02/21 18:24:26;;;;;;;5.50;2.05;;;19.10;54.90;;;;;;6268833;28;20394;-64
2023/02/21 18:27:26;;;;;;;5.38;2.53;;;19.10;55.00;;;;;;6268939;28;20028;-64
2023/02/21 18:30:27;;;;;;;7.70;3.42;;;19.10;54.90;;;;;;6268447;28;20025;-64